createdAt,value
2022-09-10T00:04:35.991Z,1.85
2022-09-10T00:09:35.702Z,1.67
2022-09-10T00:14:34.015Z,1.98
2022-09-10T00:19:32.662Z,1.48
2022-09-10T00:24:31.352Z,1.17
2022-09-10T00:29:28.856Z,1.52
2022-09-10T00:34:28.046Z,1.40
2022-09-10T00:39:27.020Z,1.42
2022-09-10T00:44:40.816Z,1.50
2022-09-10T00:49:43.442Z,2.05
2022-09-10T00:54:42.657Z,1.40
2022-09-10T00:59:45.507Z,1.30
2022-09-10T01:04:44.162Z,1.40
2022-09-10T01:09:42.801Z,1.42
2022-09-10T01:15:06.512Z,1.52
2022-09-10T01:20:33.669Z,1.27
2022-09-10T01:25:46.692Z,1.10
2022-09-10T01:30:51.879Z,1.43
2022-09-10T01:35:57.066Z,1.20
2022-09-10T01:40:56.657Z,1.42
2022-09-10T01:46:20.130Z,1.40
2022-09-10T01:51:40.278Z,1.20
2022-09-10T01:56:51.375Z,1.35
2022-09-10T02:02:06.466Z,1.40
2022-09-10T02:07:07.128Z,1.52
2022-09-10T02:12:05.298Z,1.50
2022-09-10T02:17:36.061Z,1.38
2022-09-10T02:22:38.646Z,1.95
2022-09-10T02:27:38.473Z,1.80
2022-09-10T02:32:37.364Z,1.50
2022-09-10T02:37:36.472Z,1.73
2022-09-10T02:42:35.651Z,1.70
2022-09-10T02:47:34.165Z,1.48
2022-09-10T02:52:34.092Z,1.35
2022-09-10T02:57:36.860Z,1.80
2022-09-10T03:02:36.987Z,1.92
2022-09-10T03:07:37.747Z,1.60
2022-09-10T03:12:39.322Z,1.50
2022-09-10T03:17:38.253Z,2.03
2022-09-10T03:22:35.942Z,1.75
2022-09-10T03:27:33.979Z,1.92
2022-09-10T03:32:32.764Z,2.45
2022-09-10T03:37:31.565Z,1.85
2022-09-10T03:42:29.108Z,1.92
2022-09-10T03:47:27.721Z,1.98
2022-09-10T03:52:26.714Z,1.70
2022-09-10T03:57:25.537Z,1.60
2022-09-10T04:02:24.779Z,1.60
2022-09-10T04:07:23.105Z,1.88
2022-09-10T04:12:28.008Z,2.13
2022-09-10T04:17:28.847Z,2.10
2022-09-10T04:22:28.435Z,3.13
2022-09-10T04:27:35.895Z,2.70
2022-09-10T04:32:37.067Z,2.90
2022-09-10T04:37:39.631Z,3.15
2022-09-10T04:42:38.898Z,3.13
2022-09-10T04:47:40.387Z,2.42
2022-09-10T04:52:39.820Z,2.63
2022-09-10T04:57:40.060Z,2.10
2022-09-10T05:02:39.672Z,2.70
2022-09-10T05:07:40.983Z,3.15
2022-09-10T05:12:39.769Z,3.85
2022-09-10T05:17:38.780Z,3.53
2022-09-10T05:22:40.596Z,3.63
2022-09-10T05:27:44.568Z,3.25
2022-09-10T05:32:47.416Z,2.70
2022-09-10T05:37:46.421Z,3.72
2022-09-10T05:42:45.182Z,2.90
2022-09-10T05:47:44.263Z,2.78
2022-09-10T05:52:47.053Z,2.63
2022-09-10T05:57:45.828Z,2.47
2022-09-10T06:02:48.163Z,2.90
2022-09-10T06:08:09.207Z,3.15
2022-09-10T06:13:13.272Z,2.47
2022-09-10T06:18:11.958Z,2.63
2022-09-10T06:23:10.281Z,2.88
2022-09-10T06:28:09.793Z,2.85
2022-09-10T06:33:09.221Z,3.20
2022-09-10T06:38:07.394Z,2.53
2022-09-10T06:43:06.327Z,2.67
2022-09-10T06:48:47.848Z,2.33
2022-09-10T06:53:50.918Z,2.00
2022-09-10T06:58:53.167Z,2.80
2022-09-10T07:03:57.749Z,3.45
2022-09-10T07:09:00.655Z,2.60
2022-09-10T07:14:04.232Z,3.30
2022-09-10T07:19:06.459Z,3.50
2022-09-10T07:24:14.914Z,2.47
2022-09-10T07:29:31.458Z,2.75
2022-09-10T07:34:31.552Z,2.30
2022-09-10T07:39:32.154Z,2.90
2022-09-10T07:44:30.978Z,2.47
2022-09-10T07:49:34.142Z,2.83
2022-09-10T07:54:34.512Z,2.33
2022-09-10T07:59:33.454Z,1.90
2022-09-10T08:04:37.734Z,2.22
2022-09-10T08:09:40.313Z,2.40
2022-09-10T08:14:42.507Z,2.45
2022-09-10T08:19:41.692Z,3.22
2022-09-10T08:24:41.755Z,3.10
2022-09-10T08:29:40.179Z,2.70
2022-09-10T08:34:41.126Z,1.98
2022-09-10T08:39:41.793Z,2.60
2022-09-10T08:44:50.693Z,2.92
2022-09-10T08:49:54.467Z,3.08
2022-09-10T08:54:58.857Z,2.90
2022-09-10T08:59:58.566Z,2.72
2022-09-10T09:05:05.553Z,3.40
2022-09-10T09:10:18.298Z,3.03
2022-09-10T09:15:38.920Z,3.80
2022-09-10T09:20:49.029Z,2.95
2022-09-10T09:25:51.607Z,3.38
2022-09-10T09:30:51.211Z,3.08
2022-09-10T09:36:04.516Z,4.18
2022-09-10T09:41:18.982Z,3.70
2022-09-10T09:46:19.416Z,3.50
2022-09-10T09:51:24.320Z,3.60
2022-09-10T09:56:31.714Z,3.87
2022-09-10T10:01:31.131Z,3.78
2022-09-10T10:06:32.826Z,3.58
2022-09-10T10:11:51.073Z,3.93
2022-09-10T10:16:52.855Z,3.88
2022-09-10T10:21:54.605Z,4.22
2022-09-10T10:26:52.511Z,3.50
2022-09-10T10:31:51.245Z,4.50
2022-09-10T10:37:09.166Z,4.38
2022-09-10T10:42:14.134Z,4.30
2022-09-10T10:47:21.670Z,4.82
2022-09-10T10:52:26.939Z,5.22
2022-09-10T10:57:52.063Z,5.43
2022-09-10T11:02:57.703Z,5.00
2022-09-10T11:07:57.084Z,5.20
2022-09-10T11:13:06.331Z,4.38
2022-09-10T11:18:17.463Z,4.82
2022-09-10T11:23:36.481Z,5.68
2022-09-10T11:28:41.500Z,4.97
2022-09-10T11:33:58.465Z,4.82
2022-09-10T11:39:09.405Z,5.20
2022-09-10T11:44:19.228Z,5.63
2022-09-10T11:49:34.476Z,5.50
2022-09-10T11:54:35.577Z,6.10
2022-09-10T12:00:16.144Z,5.10
2022-09-10T12:05:56.401Z,5.57
2022-09-10T12:11:10.198Z,5.53
2022-09-10T12:16:39.524Z,5.53
2022-09-10T12:21:48.349Z,5.40
2022-09-10T12:26:46.441Z,4.80
2022-09-10T12:32:09.633Z,6.93
2022-09-10T12:37:23.079Z,5.35
2022-09-10T12:42:28.930Z,4.72
2022-09-10T12:47:50.689Z,4.70
2022-09-10T12:52:55.736Z,5.65
2022-09-10T12:58:13.426Z,4.70
2022-09-10T13:03:17.987Z,4.15
2022-09-10T13:08:16.602Z,4.55
2022-09-10T13:13:29.850Z,4.63
2022-09-10T13:18:32.740Z,4.70
2022-09-10T13:23:45.260Z,5.53
2022-09-10T13:28:43.499Z,5.30
2022-09-10T13:33:44.320Z,5.05
2022-09-10T13:38:45.723Z,3.90
2022-09-10T13:44:13.111Z,4.50
2022-09-10T13:49:26.575Z,4.47
2022-09-10T13:54:36.278Z,4.95
2022-09-10T13:59:35.815Z,3.67
2022-09-10T14:04:36.073Z,4.07
2022-09-10T14:09:35.017Z,3.97
2022-09-10T14:14:37.561Z,3.95
2022-09-10T14:19:46.509Z,4.20
2022-09-10T14:24:46.529Z,4.05
2022-09-10T14:29:47.083Z,3.35
2022-09-10T14:34:47.502Z,4.35
2022-09-10T14:39:46.068Z,4.70
2022-09-10T14:44:48.958Z,3.97
2022-09-10T14:49:47.666Z,4.45
2022-09-10T14:54:46.294Z,4.47
2022-09-10T14:59:46.623Z,4.15
2022-09-10T15:04:45.465Z,3.80
2022-09-10T15:09:44.681Z,4.53
2022-09-10T15:14:43.343Z,4.47
2022-09-10T15:19:42.338Z,4.60
2022-09-10T15:25:05.689Z,4.45
2022-09-10T15:30:01.205Z,4.78
2022-09-10T15:34:59.222Z,5.00
2022-09-10T15:39:58.136Z,4.95
2022-09-10T15:44:56.819Z,4.65
2022-09-10T15:49:55.795Z,5.13
2022-09-10T15:54:54.882Z,4.53
2022-09-10T15:59:54.784Z,5.25
2022-09-10T16:04:54.233Z,5.15
2022-09-10T16:09:52.038Z,5.00
2022-09-10T16:14:54.410Z,6.13
2022-09-10T16:19:55.022Z,4.60
2022-09-10T16:24:52.855Z,4.03
2022-09-10T16:29:50.792Z,3.72
2022-09-10T16:34:49.091Z,4.15
2022-09-10T16:39:47.990Z,5.30
2022-09-10T16:44:46.751Z,4.03
2022-09-10T16:49:45.935Z,4.03
2022-09-10T16:54:46.458Z,3.65
2022-09-10T16:59:47.026Z,3.35
2022-09-10T17:04:48.889Z,3.45
2022-09-10T17:09:47.116Z,3.33
2022-09-10T17:14:48.419Z,3.28
2022-09-10T17:19:46.830Z,5.32
2022-09-10T17:24:49.440Z,3.70
2022-09-10T17:29:49.913Z,2.65
2022-09-10T17:34:51.664Z,2.50
2022-09-10T17:39:52.315Z,3.45
2022-09-10T17:44:50.362Z,1.70
2022-09-10T17:49:53.103Z,2.17
2022-09-10T17:54:54.994Z,2.92
2022-09-10T17:59:55.642Z,3.10
2022-09-10T18:05:00.976Z,3.55
2022-09-10T18:09:58.596Z,3.75
2022-09-10T18:14:57.562Z,5.40
2022-09-10T18:19:56.100Z,4.22
2022-09-10T18:24:54.661Z,4.57
2022-09-10T18:29:53.799Z,6.28
2022-09-10T18:34:51.464Z,5.95
2022-09-10T18:39:50.869Z,4.28
2022-09-10T18:44:49.260Z,4.88
2022-09-10T18:49:48.009Z,5.80
2022-09-10T18:54:46.803Z,4.88
2022-09-10T18:59:46.323Z,4.88
2022-09-10T19:05:10.353Z,5.82
2022-09-10T19:10:09.114Z,4.75
2022-09-10T19:15:11.642Z,5.00
2022-09-10T19:20:11.550Z,5.15
2022-09-10T19:25:09.874Z,5.22
2022-09-10T19:30:10.026Z,4.90
2022-09-10T19:35:11.558Z,5.22
2022-09-10T19:40:15.546Z,5.22
2022-09-10T19:45:16.564Z,5.90
2022-09-10T19:50:16.874Z,6.38
2022-09-10T19:55:18.261Z,6.73
2022-09-10T20:00:43.060Z,6.75
2022-09-10T20:05:39.696Z,7.30
2022-09-10T20:10:38.461Z,7.40
2022-09-10T20:15:42.351Z,6.30
2022-09-10T20:20:55.669Z,7.85
2022-09-10T20:25:55.188Z,7.00
2022-09-10T20:30:55.792Z,8.05
2022-09-10T20:35:58.355Z,7.05
2022-09-10T20:40:56.819Z,7.80
2022-09-10T20:46:02.978Z,7.25
2022-09-10T20:51:01.572Z,7.68
2022-09-10T20:56:05.832Z,7.82
2022-09-10T21:01:19.312Z,7.90
2022-09-10T21:06:19.748Z,7.75
2022-09-10T21:11:20.225Z,7.60
2022-09-10T21:16:22.369Z,6.55
2022-09-10T21:21:22.899Z,6.68
2022-09-10T21:26:26.223Z,6.55
2022-09-10T21:31:30.401Z,6.25
2022-09-10T21:36:29.260Z,5.47
2022-09-10T21:41:36.792Z,5.85
2022-09-10T21:46:36.620Z,6.28
2022-09-10T21:51:38.905Z,5.00
2022-09-10T21:56:43.032Z,5.15
2022-09-10T22:01:44.829Z,4.97
2022-09-10T22:06:44.569Z,4.78
2022-09-10T22:11:46.999Z,4.82
2022-09-10T22:16:46.149Z,5.03
2022-09-10T22:21:47.533Z,4.13
2022-09-10T22:26:47.458Z,4.22
2022-09-10T22:31:47.440Z,4.30
2022-09-10T22:36:46.475Z,4.97
2022-09-10T22:41:48.849Z,4.88
2022-09-10T22:46:47.520Z,4.60
2022-09-10T22:51:46.717Z,4.70
2022-09-10T22:56:45.875Z,4.85
2022-09-10T23:01:47.682Z,5.43
2022-09-10T23:06:50.240Z,5.50
2022-09-10T23:11:49.712Z,6.82
2022-09-10T23:16:49.726Z,6.93
2022-09-10T23:21:51.255Z,7.45
2022-09-10T23:26:53.731Z,7.30
2022-09-10T23:31:55.453Z,7.53
2022-09-10T23:36:58.534Z,7.18
2022-09-10T23:41:58.483Z,6.78
2022-09-10T23:46:57.632Z,7.32
2022-09-10T23:51:56.541Z,7.68
2022-09-10T23:56:54.452Z,6.60
